sensor_id;sensor_type;location;lat;lon;timestamp;temperature;humidity
15133;DHT22;7667;51.232;17.110;2023-11-18T00:00:05;3.30;99.90
15133;DHT22;7667;51.232;17.110;2023-11-18T00:02:39;3.30;99.90
15133;DHT22;7667;51.232;17.110;2023-11-18T00:05:10;3.30;99.90
15133;DHT22;7667;51.232;17.110;2023-11-18T00:07:38;3.30;99.90
15133;DHT22;7667;51.232;17.110;2023-11-18T00:10:06;3.30;99.90
15133;DHT22;7667;51.232;17.110;2023-11-18T00:12:36;3.40;99.90
15133;DHT22;7667;51.232;17.110;2023-11-18T00:15:04;3.40;99.90
15133;DHT22;7667;51.232;17.110;2023-11-18T00:17:32;3.40;99.90
15133;DHT22;7667;51.232;17.110;2023-11-18T00:20:00;3.40;99.90
15133;DHT22;7667;51.232;17.110;2023-11-18T00:22:30;3.40;99.90
15133;DHT22;7667;51.232;17.110;2023-11-18T00:24:57;3.40;99.90
15133;DHT22;7667;51.232;17.110;2023-11-18T00:27:25;3.40;99.90
15133;DHT22;7667;51.232;17.110;2023-11-18T00:29:53;3.40;99.90
15133;DHT22;7667;51.232;17.110;2023-11-18T00:32:20;3.40;99.90
15133;DHT22;7667;51.232;17.110;2023-11-18T00:34:48;3.40;99.90
15133;DHT22;7667;51.232;17.110;2023-11-18T00:37:15;3.40;99.90
15133;DHT22;7667;51.232;17.110;2023-11-18T00:39:44;3.40;99.90
15133;DHT22;7667;51.232;17.110;2023-11-18T00:42:11;3.40;99.90
15133;DHT22;7667;51.232;17.110;2023-11-18T00:44:39;3.40;99.90
15133;DHT22;7667;51.232;17.110;2023-11-18T00:47:07;3.40;99.90
15133;DHT22;7667;51.232;17.110;2023-11-18T00:49:35;3.40;99.90
15133;DHT22;7667;51.232;17.110;2023-11-18T00:52:03;3.50;99.90
15133;DHT22;7667;51.232;17.110;2023-11-18T00:54:31;3.50;99.90
15133;DHT22;7667;51.232;17.110;2023-11-18T00:56:59;3.40;99.90
15133;DHT22;7667;51.232;17.110;2023-11-18T00:59:27;3.40;99.90
15133;DHT22;7667;51.232;17.110;2023-11-18T01:01:54;3.50;99.90
15133;DHT22;7667;51.232;17.110;2023-11-18T01:04:22;3.50;99.90
15133;DHT22;7667;51.232;17.110;2023-11-18T01:06:49;3.40;99.90
15133;DHT22;7667;51.232;17.110;2023-11-18T01:09:19;3.40;99.90
15133;DHT22;7667;51.232;17.110;2023-11-18T01:11:47;3.40;99.90
15133;DHT22;7667;51.232;17.110;2023-11-18T01:14:38;3.40;99.90
15133;DHT22;7667;51.232;17.110;2023-11-18T01:17:06;3.50;99.90
15133;DHT22;7667;51.232;17.110;2023-11-18T01:19:36;3.50;99.90
15133;DHT22;7667;51.232;17.110;2023-11-18T01:22:03;3.50;99.90
15133;DHT22;7667;51.232;17.110;2023-11-18T01:24:34;3.50;99.90
15133;DHT22;7667;51.232;17.110;2023-11-18T01:27:02;3.50;99.90
15133;DHT22;7667;51.232;17.110;2023-11-18T01:29:30;3.50;99.90
15133;DHT22;7667;51.232;17.110;2023-11-18T01:31:58;3.50;99.90
15133;DHT22;7667;51.232;17.110;2023-11-18T01:34:26;3.50;99.90
15133;DHT22;7667;51.232;17.110;2023-11-18T01:36:55;3.50;99.90
15133;DHT22;7667;51.232;17.110;2023-11-18T01:39:24;3.50;99.90
15133;DHT22;7667;51.232;17.110;2023-11-18T01:41:53;3.50;99.90
15133;DHT22;7667;51.232;17.110;2023-11-18T01:44:22;3.50;99.90
15133;DHT22;7667;51.232;17.110;2023-11-18T01:46:51;3.50;99.90
15133;DHT22;7667;51.232;17.110;2023-11-18T01:49:18;3.50;99.90
15133;DHT22;7667;51.232;17.110;2023-11-18T01:51:47;3.40;99.90
15133;DHT22;7667;51.232;17.110;2023-11-18T01:54:17;3.40;99.90
15133;DHT22;7667;51.232;17.110;2023-11-18T01:56:48;3.40;99.90
15133;DHT22;7667;51.232;17.110;2023-11-18T01:59:17;3.40;99.90
15133;DHT22;7667;51.232;17.110;2023-11-18T02:01:50;3.40;99.90
15133;DHT22;7667;51.232;17.110;2023-11-18T02:04:21;3.50;99.90
15133;DHT22;7667;51.232;17.110;2023-11-18T02:06:49;3.40;99.90
15133;DHT22;7667;51.232;17.110;2023-11-18T02:09:18;3.40;99.90
15133;DHT22;7667;51.232;17.110;2023-11-18T02:14:33;3.40;99.90
15133;DHT22;7667;51.232;17.110;2023-11-18T02:17:05;3.40;99.90
15133;DHT22;7667;51.232;17.110;2023-11-18T02:19:37;3.40;99.90
15133;DHT22;7667;51.232;17.110;2023-11-18T02:22:07;3.40;99.90
15133;DHT22;7667;51.232;17.110;2023-11-18T02:24:35;3.40;99.90
15133;DHT22;7667;51.232;17.110;2023-11-18T02:27:08;3.40;99.90
15133;DHT22;7667;51.232;17.110;2023-11-18T02:29:42;3.40;99.90
15133;DHT22;7667;51.232;17.110;2023-11-18T02:32:20;3.40;99.90
15133;DHT22;7667;51.232;17.110;2023-11-18T02:35:23;3.40;99.90
15133;DHT22;7667;51.232;17.110;2023-11-18T02:37:58;3.40;99.90
15133;DHT22;7667;51.232;17.110;2023-11-18T02:40:33;3.40;99.90
15133;DHT22;7667;51.232;17.110;2023-11-18T02:43:04;3.40;99.90
15133;DHT22;7667;51.232;17.110;2023-11-18T02:45:33;3.40;99.90
15133;DHT22;7667;51.232;17.110;2023-11-18T02:48:02;3.40;99.90
15133;DHT22;7667;51.232;17.110;2023-11-18T02:50:30;3.40;99.90
15133;DHT22;7667;51.232;17.110;2023-11-18T02:52:58;3.40;99.90
15133;DHT22;7667;51.232;17.110;2023-11-18T02:55:26;3.40;99.90
15133;DHT22;7667;51.232;17.110;2023-11-18T02:57:54;3.40;99.90
15133;DHT22;7667;51.232;17.110;2023-11-18T03:00:21;3.50;99.90
15133;DHT22;7667;51.232;17.110;2023-11-18T03:02:50;3.50;99.90
15133;DHT22;7667;51.232;17.110;2023-11-18T03:05:20;3.40;99.90
15133;DHT22;7667;51.232;17.110;2023-11-18T03:07:48;3.40;99.90
15133;DHT22;7667;51.232;17.110;2023-11-18T03:10:21;3.50;99.90
15133;DHT22;7667;51.232;17.110;2023-11-18T03:12:50;3.50;99.90
15133;DHT22;7667;51.232;17.110;2023-11-18T03:15:21;3.50;99.90
15133;DHT22;7667;51.232;17.110;2023-11-18T03:17:50;3.50;99.90
15133;DHT22;7667;51.232;17.110;2023-11-18T03:20:20;3.50;99.90
15133;DHT22;7667;51.232;17.110;2023-11-18T03:22:51;3.50;99.90
15133;DHT22;7667;51.232;17.110;2023-11-18T03:25:19;3.50;99.90
15133;DHT22;7667;51.232;17.110;2023-11-18T03:27:49;3.50;99.90
15133;DHT22;7667;51.232;17.110;2023-11-18T03:30:16;3.50;99.90
15133;DHT22;7667;51.232;17.110;2023-11-18T03:32:45;3.40;99.90
15133;DHT22;7667;51.232;17.110;2023-11-18T03:35:12;3.40;99.90
15133;DHT22;7667;51.232;17.110;2023-11-18T03:37:41;3.40;99.90
15133;DHT22;7667;51.232;17.110;2023-11-18T03:40:12;3.30;99.90
15133;DHT22;7667;51.232;17.110;2023-11-18T03:42:41;3.30;99.90
15133;DHT22;7667;51.232;17.110;2023-11-18T03:45:09;3.10;99.90
15133;DHT22;7667;51.232;17.110;2023-11-18T03:47:38;3.00;99.90
15133;DHT22;7667;51.232;17.110;2023-11-18T03:50:06;2.90;99.90
15133;DHT22;7667;51.232;17.110;2023-11-18T03:52:37;2.90;99.90
15133;DHT22;7667;51.232;17.110;2023-11-18T03:55:05;2.80;99.90
15133;DHT22;7667;51.232;17.110;2023-11-18T03:57:34;2.80;99.90
15133;DHT22;7667;51.232;17.110;2023-11-18T04:00:02;2.70;99.90
15133;DHT22;7667;51.232;17.110;2023-11-18T04:02:30;2.70;99.90
15133;DHT22;7667;51.232;17.110;2023-11-18T04:04:58;2.70;99.90
15133;DHT22;7667;51.232;17.110;2023-11-18T04:07:25;2.60;99.90
15133;DHT22;7667;51.232;17.110;2023-11-18T04:09:53;2.60;99.90
15133;DHT22;7667;51.232;17.110;2023-11-18T04:12:21;2.60;99.90
15133;DHT22;7667;51.232;17.110;2023-11-18T04:14:48;2.60;99.90
15133;DHT22;7667;51.232;17.110;2023-11-18T04:17:16;2.50;99.90
15133;DHT22;7667;51.232;17.110;2023-11-18T04:19:43;2.40;99.90
15133;DHT22;7667;51.232;17.110;2023-11-18T04:22:12;2.40;99.90
15133;DHT22;7667;51.232;17.110;2023-11-18T04:24:40;2.50;99.90
15133;DHT22;7667;51.232;17.110;2023-11-18T04:27:09;2.50;99.90
15133;DHT22;7667;51.232;17.110;2023-11-18T04:29:37;2.50;99.90
15133;DHT22;7667;51.232;17.110;2023-11-18T04:32:05;2.60;99.90
15133;DHT22;7667;51.232;17.110;2023-11-18T04:34:36;2.60;99.90
15133;DHT22;7667;51.232;17.110;2023-11-18T04:37:04;2.60;99.90
15133;DHT22;7667;51.232;17.110;2023-11-18T04:39:33;2.60;99.90
15133;DHT22;7667;51.232;17.110;2023-11-18T04:42:01;2.60;99.90
15133;DHT22;7667;51.232;17.110;2023-11-18T04:44:28;2.70;99.90
15133;DHT22;7667;51.232;17.110;2023-11-18T04:46:58;2.70;99.90
15133;DHT22;7667;51.232;17.110;2023-11-18T04:49:26;2.70;99.90
15133;DHT22;7667;51.232;17.110;2023-11-18T04:51:54;2.70;99.90
15133;DHT22;7667;51.232;17.110;2023-11-18T04:54:22;2.70;99.90
15133;DHT22;7667;51.232;17.110;2023-11-18T04:56:49;2.70;99.90
15133;DHT22;7667;51.232;17.110;2023-11-18T04:59:17;2.70;99.90
15133;DHT22;7667;51.232;17.110;2023-11-18T05:01:44;2.70;99.90
15133;DHT22;7667;51.232;17.110;2023-11-18T05:04:12;2.70;99.90
15133;DHT22;7667;51.232;17.110;2023-11-18T05:06:40;2.70;99.90
15133;DHT22;7667;51.232;17.110;2023-11-18T05:09:08;2.70;99.90
15133;DHT22;7667;51.232;17.110;2023-11-18T05:11:36;2.70;99.90
15133;DHT22;7667;51.232;17.110;2023-11-18T05:14:03;2.70;99.90
15133;DHT22;7667;51.232;17.110;2023-11-18T05:16:31;2.70;99.90
15133;DHT22;7667;51.232;17.110;2023-11-18T05:18:59;2.70;99.90
15133;DHT22;7667;51.232;17.110;2023-11-18T05:21:27;2.70;99.90
15133;DHT22;7667;51.232;17.110;2023-11-18T05:23:54;2.70;99.90
15133;DHT22;7667;51.232;17.110;2023-11-18T05:26:22;2.70;99.90
15133;DHT22;7667;51.232;17.110;2023-11-18T05:28:50;2.70;99.90
15133;DHT22;7667;51.232;17.110;2023-11-18T05:31:17;2.70;99.90
15133;DHT22;7667;51.232;17.110;2023-11-18T05:33:45;2.70;99.90
15133;DHT22;7667;51.232;17.110;2023-11-18T05:36:19;2.70;99.90
15133;DHT22;7667;51.232;17.110;2023-11-18T05:38:54;2.70;99.90
15133;DHT22;7667;51.232;17.110;2023-11-18T05:41:22;2.70;99.90
15133;DHT22;7667;51.232;17.110;2023-11-18T05:43:55;2.70;99.90
15133;DHT22;7667;51.232;17.110;2023-11-18T05:46:26;2.70;99.90
15133;DHT22;7667;51.232;17.110;2023-11-18T05:48:59;2.70;99.90
15133;DHT22;7667;51.232;17.110;2023-11-18T05:51:29;2.70;99.90
15133;DHT22;7667;51.232;17.110;2023-11-18T05:53:56;2.70;99.90
15133;DHT22;7667;51.232;17.110;2023-11-18T05:56:25;2.70;99.90
15133;DHT22;7667;51.232;17.110;2023-11-18T05:58:53;2.70;99.90
15133;DHT22;7667;51.232;17.110;2023-11-18T06:01:21;2.70;99.90
15133;DHT22;7667;51.232;17.110;2023-11-18T06:03:50;2.70;99.90
15133;DHT22;7667;51.232;17.110;2023-11-18T06:06:18;2.80;99.90
15133;DHT22;7667;51.232;17.110;2023-11-18T06:08:51;2.80;99.90
15133;DHT22;7667;51.232;17.110;2023-11-18T06:11:20;2.80;99.90
15133;DHT22;7667;51.232;17.110;2023-11-18T06:13:49;2.80;99.90
15133;DHT22;7667;51.232;17.110;2023-11-18T06:16:22;2.80;99.90
15133;DHT22;7667;51.232;17.110;2023-11-18T06:18:57;2.80;99.90
15133;DHT22;7667;51.232;17.110;2023-11-18T06:21:27;2.80;99.90
15133;DHT22;7667;51.232;17.110;2023-11-18T06:23:58;2.80;99.90
15133;DHT22;7667;51.232;17.110;2023-11-18T06:26:27;2.80;99.90
15133;DHT22;7667;51.232;17.110;2023-11-18T06:28:55;2.80;99.90
15133;DHT22;7667;51.232;17.110;2023-11-18T06:31:23;2.80;99.90
15133;DHT22;7667;51.232;17.110;2023-11-18T06:33:51;2.80;99.90
15133;DHT22;7667;51.232;17.110;2023-11-18T06:36:20;2.80;99.90
15133;DHT22;7667;51.232;17.110;2023-11-18T06:38:53;2.80;99.90
15133;DHT22;7667;51.232;17.110;2023-11-18T06:41:22;2.80;99.90
15133;DHT22;7667;51.232;17.110;2023-11-18T06:43:51;2.80;99.90
15133;DHT22;7667;51.232;17.110;2023-11-18T06:46:24;2.80;99.90
15133;DHT22;7667;51.232;17.110;2023-11-18T06:48:54;2.90;99.90
15133;DHT22;7667;51.232;17.110;2023-11-18T06:51:22;2.80;99.90
15133;DHT22;7667;51.232;17.110;2023-11-18T06:53:52;2.80;99.90
15133;DHT22;7667;51.232;17.110;2023-11-18T06:56:23;2.80;99.90
15133;DHT22;7667;51.232;17.110;2023-11-18T06:58:51;2.90;99.90
15133;DHT22;7667;51.232;17.110;2023-11-18T07:01:19;2.80;99.90
15133;DHT22;7667;51.232;17.110;2023-11-18T07:03:48;2.90;99.90
15133;DHT22;7667;51.232;17.110;2023-11-18T07:06:19;2.90;99.90
15133;DHT22;7667;51.232;17.110;2023-11-18T07:08:54;2.90;99.90
15133;DHT22;7667;51.232;17.110;2023-11-18T07:11:27;2.90;99.90
15133;DHT22;7667;51.232;17.110;2023-11-18T07:13:55;2.90;99.90
15133;DHT22;7667;51.232;17.110;2023-11-18T07:16:26;2.90;99.90
15133;DHT22;7667;51.232;17.110;2023-11-18T07:18:55;2.90;99.90
15133;DHT22;7667;51.232;17.110;2023-11-18T07:21:24;3.00;99.90
15133;DHT22;7667;51.232;17.110;2023-11-18T07:23:51;3.00;99.90
15133;DHT22;7667;51.232;17.110;2023-11-18T07:26:19;3.00;99.90
15133;DHT22;7667;51.232;17.110;2023-11-18T07:28:46;3.00;99.90
15133;DHT22;7667;51.232;17.110;2023-11-18T07:31:14;3.00;99.90
15133;DHT22;7667;51.232;17.110;2023-11-18T07:33:41;3.10;99.90
15133;DHT22;7667;51.232;17.110;2023-11-18T07:36:11;3.10;99.90
15133;DHT22;7667;51.232;17.110;2023-11-18T07:38:39;3.00;99.90
15133;DHT22;7667;51.232;17.110;2023-11-18T07:41:07;3.10;99.90
15133;DHT22;7667;51.232;17.110;2023-11-18T07:43:36;3.10;99.90
15133;DHT22;7667;51.232;17.110;2023-11-18T07:46:04;3.10;99.90
15133;DHT22;7667;51.232;17.110;2023-11-18T07:48:35;3.20;99.90
15133;DHT22;7667;51.232;17.110;2023-11-18T07:51:03;3.20;99.90
15133;DHT22;7667;51.232;17.110;2023-11-18T07:53:31;3.20;99.90
15133;DHT22;7667;51.232;17.110;2023-11-18T07:55:58;3.20;99.90
15133;DHT22;7667;51.232;17.110;2023-11-18T07:58:28;3.20;99.90
15133;DHT22;7667;51.232;17.110;2023-11-18T08:00:56;3.20;99.90
15133;DHT22;7667;51.232;17.110;2023-11-18T08:03:24;3.30;99.90
15133;DHT22;7667;51.232;17.110;2023-11-18T08:05:51;3.30;99.90
15133;DHT22;7667;51.232;17.110;2023-11-18T08:08:19;3.30;99.90
15133;DHT22;7667;51.232;17.110;2023-11-18T08:10:48;3.30;99.90
15133;DHT22;7667;51.232;17.110;2023-11-18T08:13:15;3.30;99.90
15133;DHT22;7667;51.232;17.110;2023-11-18T08:15:43;3.40;99.90
15133;DHT22;7667;51.232;17.110;2023-11-18T08:18:14;3.50;99.90
15133;DHT22;7667;51.232;17.110;2023-11-18T08:20:43;3.50;99.90
15133;DHT22;7667;51.232;17.110;2023-11-18T08:23:11;3.50;99.90
15133;DHT22;7667;51.232;17.110;2023-11-18T08:25:38;3.60;99.90
15133;DHT22;7667;51.232;17.110;2023-11-18T08:28:08;3.60;99.90
15133;DHT22;7667;51.232;17.110;2023-11-18T08:30:37;3.60;99.90
15133;DHT22;7667;51.232;17.110;2023-11-18T08:33:06;3.70;99.90
15133;DHT22;7667;51.232;17.110;2023-11-18T08:35:37;3.70;99.90
15133;DHT22;7667;51.232;17.110;2023-11-18T08:38:04;3.70;99.90
15133;DHT22;7667;51.232;17.110;2023-11-18T08:40:34;3.60;99.90
15133;DHT22;7667;51.232;17.110;2023-11-18T08:43:03;3.60;99.90
15133;DHT22;7667;51.232;17.110;2023-11-18T08:45:32;3.70;99.90
15133;DHT22;7667;51.232;17.110;2023-11-18T08:48:02;3.70;99.90
15133;DHT22;7667;51.232;17.110;2023-11-18T08:50:37;3.70;99.90
15133;DHT22;7667;51.232;17.110;2023-11-18T08:53:07;3.80;99.90
15133;DHT22;7667;51.232;17.110;2023-11-18T08:55:38;3.80;99.90
15133;DHT22;7667;51.232;17.110;2023-11-18T08:58:18;3.80;99.90
15133;DHT22;7667;51.232;17.110;2023-11-18T09:00:53;3.70;99.90
15133;DHT22;7667;51.232;17.110;2023-11-18T09:03:24;3.70;99.90
15133;DHT22;7667;51.232;17.110;2023-11-18T09:05:55;3.70;99.90
15133;DHT22;7667;51.232;17.110;2023-11-18T09:08:36;3.60;99.90
15133;DHT22;7667;51.232;17.110;2023-11-18T09:11:11;3.60;99.90
15133;DHT22;7667;51.232;17.110;2023-11-18T09:13:45;3.50;99.90
15133;DHT22;7667;51.232;17.110;2023-11-18T09:16:21;3.50;99.90
15133;DHT22;7667;51.232;17.110;2023-11-18T09:19:00;3.60;99.90
15133;DHT22;7667;51.232;17.110;2023-11-18T09:21:30;3.60;99.90
15133;DHT22;7667;51.232;17.110;2023-11-18T09:24:03;3.50;99.90
15133;DHT22;7667;51.232;17.110;2023-11-18T09:26:32;3.50;99.90
15133;DHT22;7667;51.232;17.110;2023-11-18T09:29:00;3.50;99.90
15133;DHT22;7667;51.232;17.110;2023-11-18T09:31:29;3.50;99.90
15133;DHT22;7667;51.232;17.110;2023-11-18T09:33:58;3.50;99.90
15133;DHT22;7667;51.232;17.110;2023-11-18T09:36:27;3.60;99.90
15133;DHT22;7667;51.232;17.110;2023-11-18T09:38:56;3.60;99.90
15133;DHT22;7667;51.232;17.110;2023-11-18T09:41:24;3.60;99.90
15133;DHT22;7667;51.232;17.110;2023-11-18T09:43:55;3.70;99.90
15133;DHT22;7667;51.232;17.110;2023-11-18T09:46:29;3.70;99.90
15133;DHT22;7667;51.232;17.110;2023-11-18T09:49:12;3.80;99.90
15133;DHT22;7667;51.232;17.110;2023-11-18T09:51:46;3.80;99.90
15133;DHT22;7667;51.232;17.110;2023-11-18T09:54:34;3.80;99.90
15133;DHT22;7667;51.232;17.110;2023-11-18T09:57:32;3.80;99.90
15133;DHT22;7667;51.232;17.110;2023-11-18T10:00:08;3.80;99.90
15133;DHT22;7667;51.232;17.110;2023-11-18T10:03:00;3.80;99.90
15133;DHT22;7667;51.232;17.110;2023-11-18T10:05:36;3.80;99.90
15133;DHT22;7667;51.232;17.110;2023-11-18T10:08:04;3.80;99.90
15133;DHT22;7667;51.232;17.110;2023-11-18T10:10:33;3.70;99.90
15133;DHT22;7667;51.232;17.110;2023-11-18T10:13:05;3.70;99.90
15133;DHT22;7667;51.232;17.110;2023-11-18T10:15:51;3.70;99.90
15133;DHT22;7667;51.232;17.110;2023-11-18T10:18:25;3.60;99.90
15133;DHT22;7667;51.232;17.110;2023-11-18T10:20:55;3.60;99.90
15133;DHT22;7667;51.232;17.110;2023-11-18T10:23:24;3.60;99.90
15133;DHT22;7667;51.232;17.110;2023-11-18T10:25:56;3.60;99.90
15133;DHT22;7667;51.232;17.110;2023-11-18T10:28:28;3.70;99.90
15133;DHT22;7667;51.232;17.110;2023-11-18T10:31:01;3.70;99.90
15133;DHT22;7667;51.232;17.110;2023-11-18T10:33:41;3.70;99.90
15133;DHT22;7667;51.232;17.110;2023-11-18T10:36:19;3.70;99.90
15133;DHT22;7667;51.232;17.110;2023-11-18T10:38:50;3.60;99.90
15133;DHT22;7667;51.232;17.110;2023-11-18T10:41:19;3.60;99.90
15133;DHT22;7667;51.232;17.110;2023-11-18T10:43:47;3.60;99.90
15133;DHT22;7667;51.232;17.110;2023-11-18T10:46:17;3.50;99.90
15133;DHT22;7667;51.232;17.110;2023-11-18T10:48:47;3.60;99.90
15133;DHT22;7667;51.232;17.110;2023-11-18T10:51:17;3.50;99.90
15133;DHT22;7667;51.232;17.110;2023-11-18T10:53:54;3.30;99.90
15133;DHT22;7667;51.232;17.110;2023-11-18T10:56:31;3.30;99.90
15133;DHT22;7667;51.232;17.110;2023-11-18T10:59:06;3.30;99.90
15133;DHT22;7667;51.232;17.110;2023-11-18T11:01:36;3.20;99.90
15133;DHT22;7667;51.232;17.110;2023-11-18T11:04:13;3.20;99.90
15133;DHT22;7667;51.232;17.110;2023-11-18T11:06:49;3.20;99.90
15133;DHT22;7667;51.232;17.110;2023-11-18T11:09:22;3.10;99.90
15133;DHT22;7667;51.232;17.110;2023-11-18T11:12:10;3.10;99.90
15133;DHT22;7667;51.232;17.110;2023-11-18T11:15:16;3.00;99.90
15133;DHT22;7667;51.232;17.110;2023-11-18T11:17:52;3.00;99.90
15133;DHT22;7667;51.232;17.110;2023-11-18T11:20:25;2.90;99.90
15133;DHT22;7667;51.232;17.110;2023-11-18T11:23:21;2.80;99.90
15133;DHT22;7667;51.232;17.110;2023-11-18T11:28:44;2.90;99.90
15133;DHT22;7667;51.232;17.110;2023-11-18T11:31:38;3.00;99.90
15133;DHT22;7667;51.232;17.110;2023-11-18T11:34:18;3.00;99.90
15133;DHT22;7667;51.232;17.110;2023-11-18T11:36:48;3.00;99.90
15133;DHT22;7667;51.232;17.110;2023-11-18T11:39:19;3.00;99.90
15133;DHT22;7667;51.232;17.110;2023-11-18T11:41:53;3.00;99.90
15133;DHT22;7667;51.232;17.110;2023-11-18T11:44:25;3.00;99.90
15133;DHT22;7667;51.232;17.110;2023-11-18T11:46:59;3.10;99.90
15133;DHT22;7667;51.232;17.110;2023-11-18T11:49:36;3.20;99.90
15133;DHT22;7667;51.232;17.110;2023-11-18T11:52:18;3.40;99.90
15133;DHT22;7667;51.232;17.110;2023-11-18T11:55:10;3.40;99.90
15133;DHT22;7667;51.232;17.110;2023-11-18T11:57:41;3.40;99.90
15133;DHT22;7667;51.232;17.110;2023-11-18T12:00:10;3.40;99.90
15133;DHT22;7667;51.232;17.110;2023-11-18T12:02:51;3.60;99.90
15133;DHT22;7667;51.232;17.110;2023-11-18T12:05:25;3.80;99.90
15133;DHT22;7667;51.232;17.110;2023-11-18T12:07:55;3.80;99.90
15133;DHT22;7667;51.232;17.110;2023-11-18T12:10:27;3.70;99.90
15133;DHT22;7667;51.232;17.110;2023-11-18T12:13:08;3.90;99.90
15133;DHT22;7667;51.232;17.110;2023-11-18T12:15:55;4.20;99.90
15133;DHT22;7667;51.232;17.110;2023-11-18T12:18:31;4.40;99.90
15133;DHT22;7667;51.232;17.110;2023-11-18T12:21:01;4.60;99.90
15133;DHT22;7667;51.232;17.110;2023-11-18T12:23:31;4.80;99.90
15133;DHT22;7667;51.232;17.110;2023-11-18T12:26:02;4.60;99.90
15133;DHT22;7667;51.232;17.110;2023-11-18T12:29:05;4.50;99.90
15133;DHT22;7667;51.232;17.110;2023-11-18T12:32:01;4.90;99.90
15133;DHT22;7667;51.232;17.110;2023-11-18T12:34:52;4.80;99.90
15133;DHT22;7667;51.232;17.110;2023-11-18T12:40:35;5.30;99.90
15133;DHT22;7667;51.232;17.110;2023-11-18T12:49:22;5.90;99.90
15133;DHT22;7667;51.232;17.110;2023-11-18T12:51:52;5.70;99.90
15133;DHT22;7667;51.232;17.110;2023-11-18T12:54:23;5.40;99.90
15133;DHT22;7667;51.232;17.110;2023-11-18T12:56:57;5.60;99.90
15133;DHT22;7667;51.232;17.110;2023-11-18T12:59:28;5.90;99.90
15133;DHT22;7667;51.232;17.110;2023-11-18T13:01:57;5.60;99.90
15133;DHT22;7667;51.232;17.110;2023-11-18T13:04:25;5.20;99.90
15133;DHT22;7667;51.232;17.110;2023-11-18T13:06:55;5.00;99.90
15133;DHT22;7667;51.232;17.110;2023-11-18T13:09:23;4.80;99.90
15133;DHT22;7667;51.232;17.110;2023-11-18T13:12:00;4.60;99.90
15133;DHT22;7667;51.232;17.110;2023-11-18T13:14:33;4.50;99.90
15133;DHT22;7667;51.232;17.110;2023-11-18T13:17:08;4.60;99.90
15133;DHT22;7667;51.232;17.110;2023-11-18T13:19:36;4.40;99.90
15133;DHT22;7667;51.232;17.110;2023-11-18T13:22:05;4.40;99.90
15133;DHT22;7667;51.232;17.110;2023-11-18T13:24:38;4.30;99.90
15133;DHT22;7667;51.232;17.110;2023-11-18T13:27:15;4.40;99.90
15133;DHT22;7667;51.232;17.110;2023-11-18T13:29:47;4.50;99.90
15133;DHT22;7667;51.232;17.110;2023-11-18T13:32:21;4.40;99.90
15133;DHT22;7667;51.232;17.110;2023-11-18T13:34:54;4.50;99.90
15133;DHT22;7667;51.232;17.110;2023-11-18T13:37:22;4.50;99.90
15133;DHT22;7667;51.232;17.110;2023-11-18T13:39:54;4.50;99.90
15133;DHT22;7667;51.232;17.110;2023-11-18T13:42:24;4.40;99.90
15133;DHT22;7667;51.232;17.110;2023-11-18T13:45:12;4.30;99.90
15133;DHT22;7667;51.232;17.110;2023-11-18T13:48:00;4.20;99.90
15133;DHT22;7667;51.232;17.110;2023-11-18T13:50:28;4.30;99.90
15133;DHT22;7667;51.232;17.110;2023-11-18T13:52:56;4.20;99.90
15133;DHT22;7667;51.232;17.110;2023-11-18T13:55:25;4.20;99.90
15133;DHT22;7667;51.232;17.110;2023-11-18T13:57:55;4.20;99.90
15133;DHT22;7667;51.232;17.110;2023-11-18T14:00:26;4.20;99.90
15133;DHT22;7667;51.232;17.110;2023-11-18T14:02:59;4.20;99.90
15133;DHT22;7667;51.232;17.110;2023-11-18T14:05:28;4.30;99.90
15133;DHT22;7667;51.232;17.110;2023-11-18T14:07:58;4.30;99.90
15133;DHT22;7667;51.232;17.110;2023-11-18T14:10:37;4.30;99.90
15133;DHT22;7667;51.232;17.110;2023-11-18T14:13:07;4.20;99.90
15133;DHT22;7667;51.232;17.110;2023-11-18T14:15:40;4.20;99.90
15133;DHT22;7667;51.232;17.110;2023-11-18T14:18:11;4.10;99.90
15133;DHT22;7667;51.232;17.110;2023-11-18T14:20:40;4.10;99.90
15133;DHT22;7667;51.232;17.110;2023-11-18T14:23:08;4.00;99.90
15133;DHT22;7667;51.232;17.110;2023-11-18T14:25:36;3.90;99.90
15133;DHT22;7667;51.232;17.110;2023-11-18T14:28:04;3.80;99.90
15133;DHT22;7667;51.232;17.110;2023-11-18T14:30:32;3.80;99.90
15133;DHT22;7667;51.232;17.110;2023-11-18T14:32:59;3.80;99.90
15133;DHT22;7667;51.232;17.110;2023-11-18T14:35:27;3.80;99.90
15133;DHT22;7667;51.232;17.110;2023-11-18T14:37:56;3.80;99.90
15133;DHT22;7667;51.232;17.110;2023-11-18T14:40:24;3.80;99.90
15133;DHT22;7667;51.232;17.110;2023-11-18T14:42:52;3.70;99.90
15133;DHT22;7667;51.232;17.110;2023-11-18T14:45:20;3.70;99.90
15133;DHT22;7667;51.232;17.110;2023-11-18T14:47:48;3.70;99.90
15133;DHT22;7667;51.232;17.110;2023-11-18T14:50:20;3.70;99.90
15133;DHT22;7667;51.232;17.110;2023-11-18T14:52:49;3.70;99.90
15133;DHT22;7667;51.232;17.110;2023-11-18T14:55:27;3.60;99.90
15133;DHT22;7667;51.232;17.110;2023-11-18T14:57:56;3.60;99.90
15133;DHT22;7667;51.232;17.110;2023-11-18T15:00:24;3.50;99.90
15133;DHT22;7667;51.232;17.110;2023-11-18T15:02:55;3.50;99.90
15133;DHT22;7667;51.232;17.110;2023-11-18T15:05:26;3.50;99.90
15133;DHT22;7667;51.232;17.110;2023-11-18T15:07:56;3.50;99.90
15133;DHT22;7667;51.232;17.110;2023-11-18T15:10:26;3.50;99.90
15133;DHT22;7667;51.232;17.110;2023-11-18T15:12:56;3.50;99.90
15133;DHT22;7667;51.232;17.110;2023-11-18T15:15:30;3.50;99.90
15133;DHT22;7667;51.232;17.110;2023-11-18T15:18:01;3.50;99.90
15133;DHT22;7667;51.232;17.110;2023-11-18T15:20:41;3.50;99.90
15133;DHT22;7667;51.232;17.110;2023-11-18T15:23:14;3.50;99.90
15133;DHT22;7667;51.232;17.110;2023-11-18T15:25:53;3.50;99.90
15133;DHT22;7667;51.232;17.110;2023-11-18T15:28:20;3.50;99.90
15133;DHT22;7667;51.232;17.110;2023-11-18T15:30:48;3.50;99.90
15133;DHT22;7667;51.232;17.110;2023-11-18T15:33:16;3.40;99.90
15133;DHT22;7667;51.232;17.110;2023-11-18T15:35:43;3.50;99.90
15133;DHT22;7667;51.232;17.110;2023-11-18T15:38:13;3.50;99.90
15133;DHT22;7667;51.232;17.110;2023-11-18T15:40:48;3.40;99.90
15133;DHT22;7667;51.232;17.110;2023-11-18T15:43:17;3.40;99.90
15133;DHT22;7667;51.232;17.110;2023-11-18T15:45:45;3.30;99.90
15133;DHT22;7667;51.232;17.110;2023-11-18T15:48:12;3.40;99.90
15133;DHT22;7667;51.232;17.110;2023-11-18T15:50:42;3.40;99.90
15133;DHT22;7667;51.232;17.110;2023-11-18T15:53:09;3.40;99.90
15133;DHT22;7667;51.232;17.110;2023-11-18T15:55:42;3.40;99.90
15133;DHT22;7667;51.232;17.110;2023-11-18T15:58:15;3.40;99.90
15133;DHT22;7667;51.232;17.110;2023-11-18T16:00:46;3.40;99.90
15133;DHT22;7667;51.232;17.110;2023-11-18T16:03:14;3.30;99.90
15133;DHT22;7667;51.232;17.110;2023-11-18T16:05:41;3.30;99.90
15133;DHT22;7667;51.232;17.110;2023-11-18T16:08:09;3.40;99.90
15133;DHT22;7667;51.232;17.110;2023-11-18T16:10:37;3.30;99.90
15133;DHT22;7667;51.232;17.110;2023-11-18T16:13:04;3.10;99.90
15133;DHT22;7667;51.232;17.110;2023-11-18T16:15:33;3.00;99.90
15133;DHT22;7667;51.232;17.110;2023-11-18T16:18:00;3.00;99.90
15133;DHT22;7667;51.232;17.110;2023-11-18T16:20:30;3.00;99.90
15133;DHT22;7667;51.232;17.110;2023-11-18T16:23:02;3.00;99.90